Time;durP1;ratioP1;P1;durP2;ratioP2;P2;SDS_P1;SDS_P2;PMS_P1;PMS_P2;Temp;Humidity;BMP_temperature;BMP_pressure;BME280_temperature;BME280_humidity;BME280_pressure;Samples;Min_cycle;Max_cycle;Signal;HPM_P1;HPM_P2
2023/05/28 00:01:39;;;;;;;23.90;7.10;;;;;;;8.36;61.86;100905.44;108182;1265;22533;-81
2023/05/28 00:04:09;;;;;;;29.20;7.70;;;;;;;8.31;62.04;100903.55;107611;1269;22526;-79
2023/05/28 00:06:40;;;;;;;25.50;7.10;;;;;;;8.25;62.13;100902.61;107547;1269;22518;-80
2023/05/28 00:09:12;;;;;;;25.80;7.60;;;;;;;8.20;62.26;100902.45;107418;1269;24230;-79
2023/05/28 00:11:43;;;;;;;20.40;6.40;;;;;;;8.14;62.32;100899.94;110774;1266;22212;-77
2023/05/28 00:14:14;;;;;;;22.20;6.90;;;;;;;8.08;62.46;100900.66;109357;1269;22543;-77
2023/05/28 00:16:45;;;;;;;22.10;6.30;;;;;;;8.02;62.57;100897.30;107619;1271;24189;-79
2023/05/28 00:19:15;;;;;;;21.00;6.20;;;;;;;7.97;62.70;100895.61;107687;1272;23371;-78
2023/05/28 00:21:46;;;;;;;25.60;6.90;;;;;;;7.92;62.73;100889.89;107773;1272;25493;-77
2023/05/28 00:24:17;;;;;;;20.20;5.60;;;;;;;7.88;62.88;100890.59;107778;1269;22642;-78
2023/05/28 00:26:48;;;;;;;18.60;4.60;;;;;;;7.85;63.15;100891.50;107845;1269;22879;-78
2023/05/28 00:29:18;;;;;;;22.80;5.60;;;;;;;7.80;63.19;100887.77;107946;1272;25236;-78
2023/05/28 00:31:55;;;;;;;19.70;4.30;;;;;;;7.75;63.22;100892.98;108958;1270;25391;-80
2023/05/28 00:34:26;;;;;;;17.70;4.40;;;;;;;7.71;63.42;100897.65;108331;1272;22985;-79
2023/05/28 00:36:57;;;;;;;18.20;4.50;;;;;;;7.68;63.43;100896.71;107558;1272;22578;-78
2023/05/28 00:39:27;;;;;;;18.80;3.70;;;;;;;7.64;63.48;100892.92;107584;1269;25284;-78
2023/05/28 00:42:10;;;;;;;17.90;5.00;;;;;;;7.59;63.60;100890.70;107629;1271;25558;-77
2023/05/28 00:44:42;;;;;;;17.00;3.70;;;;;;;7.53;63.78;100890.25;108597;1268;22563;-77
2023/05/28 00:47:13;;;;;;;18.10;3.90;;;;;;;7.47;63.97;100890.52;108707;1269;22617;-77
2023/05/28 00:49:45;;;;;;;12.40;3.60;;;;;;;7.43;64.12;100889.77;107498;1271;22525;-77
2023/05/28 00:52:16;;;;;;;15.40;4.20;;;;;;;7.39;64.14;100887.19;110621;1271;22579;-77
2023/05/28 00:54:47;;;;;;;14.70;3.30;;;;;;;7.33;64.12;100886.08;107617;1266;24189;-77
2023/05/28 00:57:21;;;;;;;15.40;3.40;;;;;;;7.28;64.40;100887.43;108873;1266;22533;-77
2023/05/28 00:59:55;;;;;;;14.30;3.10;;;;;;;7.22;64.54;100877.84;107567;1269;22614;-79
2023/05/28 01:02:25;;;;;;;14.90;2.70;;;;;;;7.16;64.68;100878.31;107618;1271;22669;-79
2023/05/28 01:04:56;;;;;;;14.40;2.70;;;;;;;7.12;64.90;100874.80;107610;1269;22518;-78
2023/05/28 01:07:27;;;;;;;13.90;2.90;;;;;;;7.08;64.91;100870.70;107620;1265;23674;-78
2023/05/28 01:09:58;;;;;;;12.90;2.80;;;;;;;7.04;65.04;100865.58;107545;1272;22525;-78
2023/05/28 01:12:31;;;;;;;9.70;2.60;;;;;;;7.00;65.23;100862.05;107645;1272;22548;-78
2023/05/28 01:15:02;;;;;;;12.50;1.90;;;;;;;6.97;65.28;100863.33;107576;1269;22578;-78
2023/05/28 01:17:33;;;;;;;12.90;3.10;;;;;;;6.93;65.37;100859.88;107480;1271;22534;-79
2023/05/28 01:20:10;;;;;;;11.40;2.70;;;;;;;6.88;65.43;100857.31;107549;1269;25353;-79
2023/05/28 01:22:47;;;;;;;15.30;2.20;;;;;;;6.84;65.66;100853.23;107760;1266;22518;-81
2023/05/28 01:25:19;;;;;;;13.30;2.60;;;;;;;6.80;65.80;100860.52;108567;1270;22507;-82
2023/05/28 01:27:50;;;;;;;16.60;3.10;;;;;;;6.77;66.02;100859.52;108656;1271;25394;-78
2023/05/28 01:30:21;;;;;;;19.60;4.00;;;;;;;6.77;66.18;100856.77;107574;1268;22537;-78
2023/05/28 01:32:52;;;;;;;14.90;3.20;;;;;;;6.75;66.43;100855.93;107577;1266;22539;-77
2023/05/28 01:35:23;;;;;;;16.00;3.90;;;;;;;6.73;66.56;100856.62;107578;1272;22522;-78
2023/05/28 01:37:57;;;;;;;15.80;3.10;;;;;;;6.69;66.66;100854.75;107576;1271;22838;-77
2023/05/28 01:40:29;;;;;;;15.20;3.00;;;;;;;6.64;66.86;100856.56;110773;1272;22415;-78
2023/05/28 01:43:00;;;;;;;12.30;2.90;;;;;;;6.58;67.10;100858.39;110396;1272;25068;-80
2023/05/28 01:45:32;;;;;;;14.80;3.10;;;;;;;6.53;67.12;100862.48;107469;1269;25315;-78
2023/05/28 01:48:02;;;;;;;12.90;2.50;;;;;;;6.50;67.10;100861.27;110778;1269;22405;-79
2023/05/28 01:50:33;;;;;;;15.20;2.70;;;;;;;6.48;67.12;100858.80;110351;1266;22518;-78
2023/05/28 01:53:04;;;;;;;15.40;3.10;;;;;;;6.43;67.17;100856.46;110763;1269;22151;-78
2023/05/28 01:55:35;;;;;;;12.80;2.60;;;;;;;6.40;67.23;100852.25;108676;1265;22570;-78
2023/05/28 01:58:08;;;;;;;16.80;3.00;;;;;;;6.38;67.27;100849.14;107563;1272;23249;-77
2023/05/28 02:00:55;;;;;;;13.30;2.30;;;;;;;6.35;67.40;100847.24;107573;1257;22623;-78
2023/05/28 02:03:26;;;;;;;11.80;2.40;;;;;;;6.33;67.44;100846.77;107574;1272;22519;-77
2023/05/28 02:05:57;;;;;;;13.80;2.50;;;;;;;6.29;67.62;100845.75;107689;1272;22568;-77
2023/05/28 02:08:28;;;;;;;8.70;2.10;;;;;;;6.26;67.82;100844.58;107657;1269;25337;-77
2023/05/28 02:11:01;;;;;;;13.10;2.30;;;;;;;6.22;67.95;100840.92;107546;1269;23024;-79
2023/05/28 02:13:32;;;;;;;10.60;2.00;;;;;;;6.19;68.06;100842.73;107509;1272;22522;-77
2023/05/28 02:16:03;;;;;;;11.00;2.20;;;;;;;6.17;68.10;100837.73;107648;1272;22538;-78
2023/05/28 02:18:36;;;;;;;13.40;2.40;;;;;;;6.16;68.08;100834.53;107627;1266;25252;-77
2023/05/28 02:21:08;;;;;;;10.40;2.00;;;;;;;6.13;68.16;100829.84;109361;1271;22596;-77
2023/05/28 02:23:40;;;;;;;9.70;2.40;;;;;;;6.10;68.30;100830.73;107593;1272;25487;-78
2023/05/28 02:26:11;;;;;;;11.70;2.20;;;;;;;6.06;68.48;100829.30;110771;1269;22137;-80
2023/05/28 02:28:43;;;;;;;10.60;1.70;;;;;;;6.03;68.51;100832.16;108350;1264;25333;-75
2023/05/28 02:31:14;;;;;;;9.70;2.00;;;;;;;5.99;68.62;100831.63;107673;1272;24364;-75
2023/05/28 02:33:45;;;;;;;9.80;2.20;;;;;;;5.98;68.81;100833.25;110815;1272;22399;-76
2023/05/28 02:36:16;;;;;;;11.10;2.10;;;;;;;5.95;68.92;100831.95;110795;1269;22891;-75
2023/05/28 02:38:47;;;;;;;12.80;2.10;;;;;;;5.92;68.95;100833.22;109186;1267;22515;-75
2023/05/28 02:41:18;;;;;;;10.60;1.90;;;;;;;5.91;69.09;100837.05;107599;1269;22524;-75
2023/05/28 02:43:48;;;;;;;9.60;2.10;;;;;;;5.90;69.25;100841.02;107718;1266;25381;-75
2023/05/28 02:46:19;;;;;;;14.70;2.10;;;;;;;5.88;69.25;100836.55;107519;1272;27538;-78
2023/05/28 02:48:50;;;;;;;11.50;2.50;;;;;;;5.86;69.37;100837.08;107402;1270;22691;-76
2023/05/28 02:51:21;;;;;;;14.90;3.10;;;;;;;5.82;69.48;100840.55;107483;1272;24150;-76
2023/05/28 02:53:51;;;;;;;13.90;2.40;;;;;;;5.81;69.72;100841.63;107527;1267;22560;-78
2023/05/28 02:56:22;;;;;;;13.40;2.20;;;;;;;5.77;69.72;100842.65;107630;1269;25327;-75
2023/05/28 02:58:54;;;;;;;15.30;2.50;;;;;;;5.72;69.76;100840.14;107631;1269;22643;-76
2023/05/28 03:01:26;;;;;;;9.90;2.00;;;;;;;5.69;69.82;100841.17;107577;1263;25145;-76
2023/05/28 03:03:56;;;;;;;12.90;2.90;;;;;;;5.66;69.99;100841.70;107596;1269;22530;-76
2023/05/28 03:06:27;;;;;;;12.50;3.00;;;;;;;5.64;70.11;100841.14;107634;1269;22634;-76
2023/05/28 03:08:58;;;;;;;13.40;2.70;;;;;;;5.61;70.13;100839.86;107590;1270;24204;-76
2023/05/28 03:11:28;;;;;;;15.40;2.70;;;;;;;5.60;70.48;100847.73;107558;1268;23345;-76
2023/05/28 03:13:59;;;;;;;15.20;3.10;;;;;;;5.59;70.55;100849.56;107628;1269;22540;-76
2023/05/28 03:16:32;;;;;;;15.00;3.50;;;;;;;5.57;70.56;100848.50;107574;1264;26670;-77
2023/05/28 03:19:03;;;;;;;15.30;2.50;;;;;;;5.56;70.65;100850.19;110791;1266;22245;-76
2023/05/28 03:21:35;;;;;;;16.80;3.50;;;;;;;5.56;70.84;100854.55;110770;1268;22451;-75
2023/05/28 03:24:06;;;;;;;14.40;3.80;;;;;;;5.55;71.06;100857.00;108633;1269;26382;-75
2023/05/28 03:26:37;;;;;;;18.00;3.60;;;;;;;5.56;71.06;100856.75;110737;1272;22402;-76
2023/05/28 03:29:08;;;;;;;15.00;4.10;;;;;;;5.57;71.20;100858.63;110740;1270;22370;-76
2023/05/28 03:31:47;;;;;;;14.00;2.90;;;;;;;5.58;71.28;100855.61;110764;1266;23216;-76
2023/05/28 03:34:18;;;;;;;18.10;4.70;;;;;;;5.61;71.56;100855.05;109319;1251;24187;-75
2023/05/28 03:36:48;;;;;;;20.30;5.00;;;;;;;5.66;71.76;100851.54;107518;1269;22594;-76
2023/05/28 03:39:19;;;;;;;19.90;4.30;;;;;;;5.69;71.99;100848.05;107697;1272;22998;-75
2023/05/28 03:41:50;;;;;;;21.50;5.50;;;;;;;5.71;72.20;100847.94;107681;1270;24367;-75
2023/05/28 03:44:21;;;;;;;16.40;4.70;;;;;;;5.72;72.38;100848.78;107574;1269;22455;-75
2023/05/28 03:46:51;;;;;;;17.70;4.40;;;;;;;5.72;72.47;100852.25;107627;1266;22566;-75
2023/05/28 03:49:22;;;;;;;19.40;5.10;;;;;;;5.75;72.59;100856.86;107616;1267;22727;-75
2023/05/28 03:51:53;;;;;;;18.20;4.70;;;;;;;5.79;72.78;100859.63;107549;1272;22517;-77
2023/05/28 03:54:23;;;;;;;18.90;4.90;;;;;;;5.82;72.95;100861.85;107571;1272;23477;-76
2023/05/28 03:56:57;;;;;;;13.70;3.70;;;;;;;5.87;72.88;100864.85;107762;1272;23074;-75
2023/05/28 03:59:28;;;;;;;17.80;3.90;;;;;;;5.91;73.10;100862.39;107683;1267;24160;-75
2023/05/28 04:01:58;;;;;;;19.60;5.10;;;;;;;5.97;73.06;100863.84;107721;1272;24478;-74
2023/05/28 04:04:29;;;;;;;16.50;3.30;;;;;;;6.03;73.29;100856.63;108318;1267;22664;-78
2023/05/28 04:07:00;;;;;;;18.40;3.50;;;;;;;6.09;73.37;100857.98;108482;1272;22518;-75
2023/05/28 04:09:31;;;;;;;18.70;4.00;;;;;;;6.14;73.57;100857.46;107800;1272;25214;-75
2023/05/28 04:12:02;;;;;;;16.20;3.60;;;;;;;6.19;73.46;100856.23;107648;1270;22969;-77
2023/05/28 04:14:33;;;;;;;16.90;3.70;;;;;;;6.26;73.62;100857.85;107522;1272;23293;-77
2023/05/28 04:17:05;;;;;;;16.40;3.00;;;;;;;6.34;73.49;100853.13;107490;1270;22616;-76
2023/05/28 04:19:35;;;;;;;12.50;3.10;;;;;;;6.42;73.84;100851.65;107626;1266;22698;-78
2023/05/28 04:22:06;;;;;;;16.20;3.30;;;;;;;6.50;73.98;100852.48;107720;1272;22573;-76
2023/05/28 04:24:37;;;;;;;11.60;2.80;;;;;;;6.58;74.05;100854.71;107597;1268;22766;-76
2023/05/28 04:27:08;;;;;;;14.80;3.10;;;;;;;6.67;74.13;100854.66;107606;1272;24740;-76
2023/05/28 04:29:39;;;;;;;11.50;2.40;;;;;;;6.76;74.18;100857.65;107566;1269;26236;-76
2023/05/28 04:32:10;;;;;;;15.00;3.40;;;;;;;6.86;74.10;100858.33;107578;1263;26531;-76
2023/05/28 04:34:42;;;;;;;13.90;3.00;;;;;;;6.98;74.21;100858.60;107606;1272;25342;-76
2023/05/28 04:37:12;;;;;;;13.90;2.10;;;;;;;7.11;73.97;100853.40;110859;1272;22254;-76
2023/05/28 04:39:43;;;;;;;11.80;2.00;;;;;;;7.24;74.27;100855.23;110723;1270;23073;-76
2023/05/28 04:42:16;;;;;;;11.80;2.40;;;;;;;7.39;74.05;100854.64;110816;1266;22189;-73
2023/05/28 04:44:47;;;;;;;13.30;2.90;;;;;;;7.56;74.03;100850.40;110128;1270;22705;-74
2023/05/28 04:47:18;;;;;;;11.40;2.70;;;;;;;7.73;73.96;100845.65;107715;1267;22525;-75
2023/05/28 04:49:49;;;;;;;14.90;2.20;;;;;;;7.90;73.67;100851.38;107700;1270;22524;-75
2023/05/28 04:52:20;;;;;;;13.00;3.10;;;;;;;8.06;73.43;100853.86;107487;1267;25361;-75
2023/05/28 04:54:51;;;;;;;14.30;2.90;;;;;;;8.22;73.48;100857.08;107585;1272;22644;-76
2023/05/28 04:57:21;;;;;;;15.20;3.50;;;;;;;8.39;73.07;100855.59;107613;1269;22866;-76
2023/05/28 04:59:52;;;;;;;19.20;2.70;;;;;;;8.55;73.12;100856.45;107550;1270;22521;-75
2023/05/28 05:02:23;;;;;;;14.00;2.70;;;;;;;8.72;72.51;100857.04;107500;1272;22519;-76
2023/05/28 05:04:56;;;;;;;12.90;2.60;;;;;;;8.89;72.30;100860.30;107563;1270;23946;-74
2023/05/28 05:07:28;;;;;;;9.70;2.30;;;;;;;9.08;71.79;100858.45;107617;1265;22645;-76
2023/05/28 05:09:58;;;;;;;13.20;2.40;;;;;;;9.24;71.67;100858.09;107565;1272;25296;-76
2023/05/28 05:12:29;;;;;;;12.90;2.90;;;;;;;9.40;71.28;100857.98;107590;1270;22534;-77
2023/05/28 05:15:00;;;;;;;9.30;2.40;;;;;;;9.54;71.22;100857.64;107573;1271;22518;-75
2023/05/28 05:17:31;;;;;;;13.40;2.50;;;;;;;9.70;70.62;100859.73;107589;1267;22525;-77
2023/05/28 05:20:06;;;;;;;12.80;2.90;;;;;;;9.85;70.31;100860.25;107718;1269;25679;-76
2023/05/28 05:22:36;;;;;;;12.80;2.30;;;;;;;10.03;69.77;100860.02;110749;1266;22527;-76
2023/05/28 05:25:09;;;;;;;16.00;2.00;;;;;;;10.17;69.59;100861.59;110438;1260;22616;-78
2023/05/28 05:27:40;;;;;;;13.10;2.00;;;;;;;10.31;69.21;100861.95;107545;1257;22574;-77
2023/05/28 05:30:12;;;;;;;14.70;2.20;;;;;;;10.46;68.51;100860.13;110790;1270;22518;-75
2023/05/28 05:32:43;;;;;;;10.20;2.00;;;;;;;10.60;68.43;100860.59;110774;1269;22215;-76
2023/05/28 05:35:14;;;;;;;10.90;1.80;;;;;;;10.73;67.97;100855.94;109239;1272;24239;-76
2023/05/28 05:37:45;;;;;;;10.90;2.00;;;;;;;10.88;67.58;100854.56;107687;1264;22538;-76
2023/05/28 05:40:16;;;;;;;10.70;2.40;;;;;;;11.00;67.66;100852.51;107624;1272;25302;-78
2023/05/28 05:42:47;;;;;;;12.70;1.90;;;;;;;11.09;67.50;100850.16;107637;1272;25196;-77
2023/05/28 05:45:18;;;;;;;11.30;2.00;;;;;;;11.22;67.45;100852.91;107615;1270;22521;-77
2023/05/28 05:47:49;;;;;;;12.40;2.20;;;;;;;11.34;67.04;100848.79;107395;1272;22587;-77
2023/05/28 05:50:19;;;;;;;10.70;2.00;;;;;;;11.44;66.80;100852.40;107722;1272;24211;-77
2023/05/28 05:52:50;;;;;;;16.10;2.20;;;;;;;11.56;66.52;100851.83;107585;1272;22544;-77
2023/05/28 05:55:21;;;;;;;8.00;1.90;;;;;;;11.69;66.29;100848.05;107626;1267;22511;-76
2023/05/28 05:57:52;;;;;;;11.40;2.20;;;;;;;11.81;66.02;100845.14;107544;1271;22579;-76
2023/05/28 06:00:23;;;;;;;8.10;1.60;;;;;;;11.95;65.66;100845.11;107691;1269;24187;-76
2023/05/28 06:02:53;;;;;;;9.40;1.70;;;;;;;12.09;65.03;100841.02;107638;1271;22563;-76
2023/05/28 06:05:24;;;;;;;12.40;1.80;;;;;;;12.23;64.64;100839.39;107607;1268;22588;-77
2023/05/28 06:07:56;;;;;;;7.60;1.60;;;;;;;12.35;64.28;100838.56;107564;1268;24176;-76
2023/05/28 06:10:27;;;;;;;7.50;1.70;;;;;;;12.43;63.75;100836.54;107672;1267;22521;-76
2023/05/28 06:13:00;;;;;;;7.90;1.50;;;;;;;12.48;63.91;100845.61;107638;1249;24186;-76
2023/05/28 06:15:32;;;;;;;7.60;1.60;;;;;;;12.57;63.86;100843.77;110779;1272;22395;-77
2023/05/28 06:18:03;;;;;;;8.00;1.60;;;;;;;12.69;63.36;100842.79;107899;1271;22661;-76
2023/05/28 06:20:34;;;;;;;5.80;1.20;;;;;;;12.80;63.42;100839.90;110795;1266;22348;-76
2023/05/28 06:23:05;;;;;;;7.00;1.50;;;;;;;12.93;63.15;100840.46;110786;1270;22943;-76
2023/05/28 06:25:37;;;;;;;9.50;1.70;;;;;;;13.05;62.75;100833.67;108376;1267;24301;-76
2023/05/28 06:28:10;;;;;;;10.40;1.70;;;;;;;13.16;62.12;100836.23;107550;1272;22533;-76
2023/05/28 06:30:41;;;;;;;10.00;1.20;;;;;;;13.27;62.34;100834.67;107723;1269;25284;-77
2023/05/28 06:33:13;;;;;;;17.80;1.60;;;;;;;13.42;62.21;100840.95;107625;1267;22632;-77
2023/05/28 06:35:44;;;;;;;6.80;1.30;;;;;;;13.53;61.60;100844.81;110706;1272;22312;-77
2023/05/28 06:38:14;;;;;;;6.40;1.20;;;;;;;13.62;61.49;100844.22;110775;1267;22227;-76
2023/05/28 06:40:45;;;;;;;8.70;1.90;;;;;;;13.74;60.64;100846.74;110738;1260;22329;-75
2023/05/28 06:43:18;;;;;;;9.00;1.50;;;;;;;13.85;60.29;100844.66;110802;1272;22367;-75
2023/05/28 06:45:48;;;;;;;7.70;1.40;;;;;;;13.94;60.00;100838.98;107855;1272;22689;-77
2023/05/28 06:48:19;;;;;;;8.40;1.40;;;;;;;14.05;60.34;100837.15;107739;1266;22574;-78
2023/05/28 06:50:51;;;;;;;9.00;1.40;;;;;;;14.19;59.79;100839.30;107755;1267;23135;-78
2023/05/28 06:53:25;;;;;;;9.50;1.50;;;;;;;14.28;58.99;100836.16;107691;1272;24199;-79
2023/05/28 06:55:56;;;;;;;6.10;1.20;;;;;;;14.36;58.67;100833.67;107663;1266;22505;-79
2023/05/28 06:58:27;;;;;;;7.90;1.20;;;;;;;14.43;58.15;100836.68;107606;1272;22596;-76
2023/05/28 07:01:01;;;;;;;10.00;1.20;;;;;;;14.50;58.00;100842.55;107581;1272;22908;-77
2023/05/28 07:03:35;;;;;;;6.40;1.00;;;;;;;14.58;58.02;100841.48;107672;1269;22511;-78
2023/05/28 07:06:06;;;;;;;8.50;1.20;;;;;;;14.69;57.37;100842.77;107617;1266;22538;-77
2023/05/28 07:08:40;;;;;;;7.90;1.00;;;;;;;14.77;57.01;100839.70;107657;1267;22526;-77
2023/05/28 07:11:11;;;;;;;8.30;1.30;;;;;;;14.87;57.08;100842.57;107500;1266;25254;-76
2023/05/28 07:13:43;;;;;;;6.10;0.90;;;;;;;14.94;55.91;100840.82;107820;1266;22534;-77
2023/05/28 07:16:15;;;;;;;4.80;1.10;;;;;;;15.02;55.91;100840.48;107767;1267;22960;-75
2023/05/28 07:18:47;;;;;;;5.40;1.10;;;;;;;15.13;55.83;100835.58;107644;1261;22545;-76
2023/05/28 07:21:18;;;;;;;10.60;1.50;;;;;;;15.21;54.71;100832.97;107621;1266;23335;-75
2023/05/28 07:23:49;;;;;;;6.80;0.80;;;;;;;15.23;54.68;100834.27;107620;1267;24281;-76
2023/05/28 07:26:20;;;;;;;7.70;0.90;;;;;;;15.33;54.42;100836.35;107658;1272;22524;-75
2023/05/28 07:28:51;;;;;;;4.70;0.80;;;;;;;15.43;54.21;100834.61;107616;1266;25330;-75
2023/05/28 07:31:22;;;;;;;5.20;0.80;;;;;;;15.49;53.57;100835.70;107696;1268;22521;-77
2023/05/28 07:33:53;;;;;;;4.90;1.00;;;;;;;15.58;53.81;100832.00;107934;1271;25308;-77
2023/05/28 07:36:25;;;;;;;6.00;0.80;;;;;;;15.68;52.78;100830.08;107916;1269;25494;-77
2023/05/28 07:38:56;;;;;;;11.00;1.00;;;;;;;15.74;52.43;100823.62;107855;1266;22543;-78
2023/05/28 07:41:27;;;;;;;9.50;1.10;;;;;;;15.83;52.49;100822.20;108486;1257;22476;-79
2023/05/28 07:43:58;;;;;;;6.10;1.10;;;;;;;15.93;52.26;100820.66;108600;1266;23057;-77
2023/05/28 07:46:29;;;;;;;7.80;0.90;;;;;;;16.02;51.89;100817.71;108632;1266;22606;-78
2023/05/28 07:49:00;;;;;;;2.80;0.70;;;;;;;16.12;51.52;100813.72;107785;1272;22544;-76
2023/05/28 07:51:32;;;;;;;6.60;0.80;;;;;;;16.23;50.99;100813.98;107780;1266;24208;-76
2023/05/28 07:54:03;;;;;;;5.70;0.80;;;;;;;16.30;50.03;100815.98;107784;1272;23366;-77
2023/05/28 07:56:35;;;;;;;7.60;0.80;;;;;;;16.34;49.89;100814.00;107819;1267;22662;-77
2023/05/28 07:59:07;;;;;;;4.30;0.80;;;;;;;16.42;49.63;100810.34;107701;1266;25401;-78
2023/05/28 08:01:38;;;;;;;8.10;1.00;;;;;;;16.52;49.42;100803.80;107711;1265;24384;-79
2023/05/28 08:04:09;;;;;;;5.20;1.00;;;;;;;16.63;48.86;100800.21;107740;1271;26499;-78
2023/05/28 08:06:40;;;;;;;6.40;0.90;;;;;;;16.70;48.37;100799.41;107778;1266;22551;-78
2023/05/28 08:09:11;;;;;;;9.80;0.80;;;;;;;16.78;47.98;100796.40;107737;1266;24250;-77
2023/05/28 08:11:42;;;;;;;5.10;0.70;;;;;;;16.89;47.99;100791.35;107778;1271;24246;-78
2023/05/28 08:14:13;;;;;;;5.00;0.70;;;;;;;17.00;47.53;100793.73;107864;1267;25306;-78
2023/05/28 08:16:44;;;;;;;4.10;0.60;;;;;;;17.12;46.78;100787.84;108507;1267;22617;-79
2023/05/28 08:19:15;;;;;;;5.10;0.50;;;;;;;17.17;45.75;100792.52;107736;1267;22974;-76
2023/05/28 08:21:46;;;;;;;3.30;0.80;;;;;;;17.22;45.26;100787.50;107648;1272;25262;-77
2023/05/28 08:24:18;;;;;;;5.20;0.70;;;;;;;17.25;45.38;100781.55;107655;1266;22518;-78
2023/05/28 08:26:49;;;;;;;5.40;0.90;;;;;;;17.29;45.30;100781.61;110747;1272;22308;-77
2023/05/28 08:29:20;;;;;;;6.60;0.60;;;;;;;17.37;45.14;100774.98;110752;1270;22224;-77
2023/05/28 08:31:50;;;;;;;4.10;0.50;;;;;;;17.46;44.54;100773.65;110611;1264;23063;-78
2023/05/28 08:34:22;;;;;;;3.60;0.70;;;;;;;17.52;44.53;100777.98;110671;1266;22876;-76
2023/05/28 08:36:55;;;;;;;4.10;0.50;;;;;;;17.62;44.80;100780.39;110631;1265;22682;-79
2023/05/28 08:39:26;;;;;;;3.10;0.60;;;;;;;17.74;44.13;100779.39;110644;1266;24239;-78
2023/05/28 08:41:57;;;;;;;4.00;0.70;;;;;;;17.90;44.39;100772.43;109362;1266;24206;-78
2023/05/28 08:44:29;;;;;;;6.90;0.60;;;;;;;18.05;43.95;100774.23;107721;1268;26481;-78
2023/05/28 08:47:02;;;;;;;2.60;0.50;;;;;;;18.10;43.35;100770.84;107833;1263;22504;-79
2023/05/28 08:49:39;;;;;;;4.00;0.60;;;;;;;18.14;43.08;100774.42;107986;1267;26505;-79
2023/05/28 08:52:12;;;;;;;4.20;0.80;;;;;;;18.18;42.74;100772.14;108542;1269;24187;-79
2023/05/28 08:54:44;;;;;;;5.80;0.80;;;;;;;18.22;41.58;100776.86;110696;1262;22364;-80
2023/05/28 08:57:16;;;;;;;4.50;0.70;;;;;;;18.22;41.01;100772.59;108284;1267;22508;-78
2023/05/28 08:59:48;;;;;;;11.10;0.60;;;;;;;18.16;41.09;100770.77;107659;1266;23376;-78
2023/05/28 09:02:21;;;;;;;4.60;0.60;;;;;;;18.18;40.64;100767.47;107879;1260;22576;-79
2023/05/28 09:04:53;;;;;;;5.80;0.60;;;;;;;18.18;40.00;100764.80;108291;1266;22500;-78
2023/05/28 09:07:25;;;;;;;3.30;0.50;;;;;;;18.21;39.99;100765.25;107871;1266;22541;-78
2023/05/28 09:09:58;;;;;;;3.90;0.60;;;;;;;18.22;40.19;100767.45;107807;1266;23974;-77
2023/05/28 09:12:29;;;;;;;6.10;0.60;;;;;;;18.28;39.98;100768.05;108013;1264;24207;-80
2023/05/28 09:15:00;;;;;;;4.50;0.70;;;;;;;18.34;39.42;100768.33;107839;1266;22538;-79
2023/05/28 09:17:39;;;;;;;6.10;0.70;;;;;;;18.37;38.98;100766.82;107749;1272;25329;-79
2023/05/28 09:20:15;;;;;;;5.90;0.60;;;;;;;18.42;39.19;100764.71;107841;1266;22935;-78
2023/05/28 09:22:49;;;;;;;3.10;0.50;;;;;;;18.51;39.01;100762.22;110766;1272;23004;-79
2023/05/28 09:25:26;;;;;;;3.30;0.50;;;;;;;18.56;38.76;100756.69;108555;1267;22551;-77
2023/05/28 09:27:59;;;;;;;4.50;0.60;;;;;;;18.64;38.59;100758.65;109086;1266;22543;-77
2023/05/28 09:30:35;;;;;;;4.20;0.80;;;;;;;18.67;38.45;100761.47;108271;1266;25512;-79
2023/05/28 09:33:08;;;;;;;4.30;0.50;;;;;;;18.72;38.07;100760.97;110604;1265;23475;-77
2023/05/28 09:35:38;;;;;;;2.90;0.60;;;;;;;18.71;37.61;100760.87;110662;1267;22328;-77
2023/05/28 09:38:11;;;;;;;4.50;0.60;;;;;;;18.72;36.94;100758.71;110630;1266;23704;-76
2023/05/28 09:40:43;;;;;;;4.30;0.60;;;;;;;18.69;36.82;100758.27;110629;1266;22866;-77
2023/05/28 09:43:16;;;;;;;6.90;0.80;;;;;;;18.63;37.19;100754.45;110591;1272;22370;-78
2023/05/28 09:45:49;;;;;;;7.40;0.70;;;;;;;18.67;37.65;100758.19;110686;1262;22253;-77
2023/05/28 09:48:22;;;;;;;2.00;0.50;;;;;;;18.78;37.84;100750.45;110674;1266;22209;-79
2023/05/28 09:50:55;;;;;;;3.30;0.70;;;;;;;18.85;37.35;100757.65;110720;1269;22355;-77
2023/05/28 09:53:28;;;;;;;6.30;0.80;;;;;;;18.86;37.24;100757.13;110701;1266;22234;-78
2023/05/28 09:56:03;;;;;;;5.50;0.60;;;;;;;18.85;37.24;100751.38;110693;1266;22391;-77
2023/05/28 09:58:37;;;;;;;7.50;0.70;;;;;;;18.84;36.91;100747.98;110720;1271;22934;-77
2023/05/28 10:01:14;;;;;;;2.90;0.40;;;;;;;18.83;36.70;100740.27;110705;1271;22220;-77
2023/05/28 10:03:49;;;;;;;3.30;0.80;;;;;;;18.85;37.11;100738.05;110728;1271;22400;-77
2023/05/28 10:06:22;;;;;;;7.10;0.60;;;;;;;18.87;36.73;100740.61;110639;1269;22158;-76
2023/05/28 10:08:55;;;;;;;6.00;0.70;;;;;;;18.89;36.62;100743.52;110719;1266;22271;-77
2023/05/28 10:11:31;;;;;;;4.20;0.60;;;;;;;18.93;36.73;100743.45;110744;1266;22210;-79
2023/05/28 10:14:03;;;;;;;3.20;0.60;;;;;;;18.99;36.55;100742.02;110672;1271;22978;-79
2023/05/28 10:16:35;;;;;;;3.90;0.90;;;;;;;19.06;36.46;100741.34;110699;1265;22420;-78
2023/05/28 10:19:06;;;;;;;5.90;0.60;;;;;;;19.10;36.26;100740.08;110655;1272;22205;-78
2023/05/28 10:21:37;;;;;;;2.40;0.40;;;;;;;19.11;35.93;100733.95;110699;1266;22337;-78
2023/05/28 10:24:10;;;;;;;3.10;0.50;;;;;;;19.11;35.82;100734.87;110678;1264;22322;-79
2023/05/28 10:26:42;;;;;;;12.80;5.00;;;;;;;19.14;35.87;100734.95;110749;1271;22207;-78
2023/05/28 10:29:13;;;;;;;4.40;0.90;;;;;;;19.19;35.44;100736.56;110651;1266;22257;-79
2023/05/28 10:31:44;;;;;;;4.30;0.70;;;;;;;19.20;35.68;100730.43;110669;1267;22371;-78
2023/05/28 10:34:19;;;;;;;9.90;0.80;;;;;;;19.23;35.45;100725.83;110687;1266;22290;-80
2023/05/28 10:36:57;;;;;;;4.90;0.50;;;;;;;19.23;35.34;100720.27;109358;1266;25371;-78
2023/05/28 10:39:27;;;;;;;2.50;0.70;;;;;;;19.22;35.44;100721.30;107987;1260;22621;-79
2023/05/28 10:42:00;;;;;;;7.10;0.60;;;;;;;19.20;34.88;100715.97;108030;1270;22532;-81
2023/05/28 10:44:51;;;;;;;6.40;0.60;;;;;;;19.14;34.40;100722.76;107662;1272;230454;-79
2023/05/28 10:47:33;;;;;;;6.20;0.50;;;;;;;19.10;34.92;100718.92;107773;1265;22552;-78
2023/05/28 10:50:14;;;;;;;3.90;0.60;;;;;;;19.15;34.93;100723.53;108268;1267;22535;-78
2023/05/28 10:53:03;;;;;;;2.50;0.50;;;;;;;19.15;35.19;100714.42;107815;1269;23297;-78
2023/05/28 10:55:49;;;;;;;1.90;0.50;;;;;;;19.23;34.93;100710.91;107746;1269;23420;-78
2023/05/28 10:58:27;;;;;;;2.80;0.60;;;;;;;19.25;34.63;100716.48;107811;1266;24184;-80
2023/05/28 11:01:04;;;;;;;6.00;0.60;;;;;;;19.32;34.92;100716.70;110685;1253;22178;-79
2023/05/28 11:03:52;;;;;;;5.50;0.50;;;;;;;19.39;34.24;100720.05;110743;1266;22384;-79
2023/05/28 11:06:25;;;;;;;3.20;0.40;;;;;;;19.42;33.94;100716.06;110696;1271;22212;-78
2023/05/28 11:08:57;;;;;;;6.60;0.50;;;;;;;19.43;33.70;100716.92;110637;1265;22408;-79
2023/05/28 11:11:29;;;;;;;9.10;1.00;;;;;;;19.46;33.63;100715.24;110619;1266;23096;-79
2023/05/28 11:14:01;;;;;;;3.50;0.60;;;;;;;19.52;33.78;100714.30;110595;1267;23514;-78
2023/05/28 11:16:34;;;;;;;5.80;0.80;;;;;;;19.59;33.84;100713.83;108224;1266;22548;-79
2023/05/28 11:19:08;;;;;;;5.40;0.60;;;;;;;19.67;33.76;100709.48;107941;1266;25170;-78
2023/05/28 11:21:53;;;;;;;3.90;0.50;;;;;;;19.75;33.89;100714.13;108131;1266;22993;-79
2023/05/28 11:24:23;;;;;;;6.50;0.50;;;;;;;19.84;33.54;100716.48;108051;1266;22550;-79
2023/05/28 11:26:55;;;;;;;5.10;0.50;;;;;;;19.87;33.84;100714.35;108218;1269;26504;-79
2023/05/28 11:29:26;;;;;;;7.40;0.60;;;;;;;19.88;33.42;100705.23;108839;1265;24279;-80
2023/05/28 11:32:03;;;;;;;2.90;0.50;;;;;;;19.91;33.85;100705.28;109328;1265;22654;-79
2023/05/28 11:34:34;;;;;;;1.90;0.40;;;;;;;19.93;33.33;100710.61;108724;1265;25268;-80
2023/05/28 11:37:07;;;;;;;3.80;0.60;;;;;;;19.89;33.37;100707.16;108395;1269;22990;-82
2023/05/28 11:39:39;;;;;;;6.70;0.80;;;;;;;19.83;33.10;100698.58;109053;1266;26534;-82